createdAt,value
2017-12-28T00:00:44.886Z,4.53
2017-12-28T00:03:17.429Z,4.60
2017-12-28T00:05:49.935Z,4.87
2017-12-28T00:08:22.424Z,5.27
2017-12-28T00:10:54.962Z,4.63
2017-12-28T00:13:27.459Z,4.50
2017-12-28T00:16:00.001Z,5.07
2017-12-28T00:18:33.213Z,4.20
2017-12-28T00:21:05.708Z,5.10
2017-12-28T00:23:38.185Z,4.20
2017-12-28T00:26:10.679Z,5.03
2017-12-28T00:28:43.173Z,5.80
2017-12-28T00:31:15.675Z,4.50
2017-12-28T00:33:48.158Z,6.57
2017-12-28T00:36:20.666Z,7.90
2017-12-28T00:38:53.143Z,5.77
2017-12-28T00:41:25.647Z,4.73
2017-12-28T00:43:58.136Z,4.20
2017-12-28T00:46:31.203Z,4.00
2017-12-28T00:49:03.702Z,4.23
2017-12-28T00:51:36.196Z,5.60
2017-12-28T00:54:08.747Z,4.13
2017-12-28T00:56:41.248Z,4.73
2017-12-28T00:59:13.730Z,4.87
2017-12-28T01:01:46.236Z,4.87
2017-12-28T01:04:18.716Z,5.67
2017-12-28T01:06:51.212Z,7.03
2017-12-28T01:09:23.692Z,7.67
2017-12-28T01:11:56.185Z,8.20
2017-12-28T01:14:28.669Z,8.77
2017-12-28T01:17:01.515Z,7.77
2017-12-28T01:19:34.027Z,6.33
2017-12-28T01:22:06.567Z,5.90
2017-12-28T01:24:39.044Z,5.73
2017-12-28T01:27:11.523Z,5.50
2017-12-28T01:29:44.023Z,5.90
2017-12-28T01:32:16.516Z,5.70
2017-12-28T01:34:49.006Z,5.90
2017-12-28T01:37:21.482Z,6.17
2017-12-28T01:39:54.041Z,5.50
2017-12-28T01:42:26.531Z,6.60
2017-12-28T01:44:59.029Z,7.30
2017-12-28T01:47:31.527Z,8.90
2017-12-28T01:50:04.037Z,7.17
2017-12-28T01:52:36.520Z,5.17
2017-12-28T01:55:09.034Z,6.17
2017-12-28T01:57:41.516Z,7.63
2017-12-28T02:00:14.176Z,7.40
2017-12-28T02:02:46.665Z,6.93
2017-12-28T02:05:19.193Z,9.87
2017-12-28T02:07:51.683Z,7.80
2017-12-28T02:10:24.192Z,9.47
2017-12-28T02:12:56.680Z,8.30
2017-12-28T02:15:29.200Z,12.03
2017-12-28T02:18:02.499Z,9.17
2017-12-28T02:20:35.019Z,15.07
2017-12-28T02:23:07.517Z,11.57
2017-12-28T02:25:40.024Z,9.47
2017-12-28T02:28:12.510Z,12.90
2017-12-28T02:30:45.028Z,10.67
2017-12-28T02:33:17.520Z,10.67
2017-12-28T02:35:50.040Z,14.43
2017-12-28T02:38:22.547Z,10.10
2017-12-28T02:40:55.047Z,10.07
2017-12-28T02:43:27.525Z,12.27
2017-12-28T02:46:00.034Z,9.40
2017-12-28T02:48:32.544Z,14.77
2017-12-28T02:51:05.052Z,12.67
2017-12-28T02:53:37.539Z,9.03
2017-12-28T02:56:10.053Z,10.27
2017-12-28T02:58:43.585Z,10.20
2017-12-28T03:01:16.106Z,10.93
2017-12-28T03:03:48.597Z,11.20
2017-12-28T03:06:21.116Z,12.20
2017-12-28T03:08:53.603Z,13.30
2017-12-28T03:11:26.120Z,13.77
2017-12-28T03:13:58.603Z,15.53
2017-12-28T03:16:31.116Z,17.07
2017-12-28T03:19:03.627Z,18.50
2017-12-28T03:21:36.139Z,18.83
2017-12-28T03:24:08.658Z,17.80
2017-12-28T03:26:42.081Z,15.47
2017-12-28T03:29:14.560Z,16.20
2017-12-28T03:31:47.071Z,13.97
2017-12-28T03:34:19.551Z,12.93
2017-12-28T03:36:52.063Z,10.77
2017-12-28T03:39:24.549Z,11.50
2017-12-28T03:41:57.067Z,11.50
2017-12-28T03:44:29.546Z,9.60
2017-12-28T03:47:02.042Z,7.47
2017-12-28T03:49:34.516Z,5.20
2017-12-28T03:52:07.012Z,5.67
2017-12-28T03:54:39.492Z,5.00
2017-12-28T03:57:12.800Z,4.77
2017-12-28T03:59:45.281Z,4.37
2017-12-28T04:02:17.784Z,4.03
2017-12-28T04:04:50.262Z,3.97
2017-12-28T04:07:22.772Z,3.87
2017-12-28T04:09:55.250Z,4.10
2017-12-28T04:12:27.734Z,3.50
2017-12-28T04:15:00.200Z,3.50
2017-12-28T04:17:32.690Z,3.77
2017-12-28T04:20:05.186Z,3.83
2017-12-28T04:22:37.694Z,3.60
2017-12-28T04:25:10.173Z,4.43
2017-12-28T04:27:42.671Z,4.47
2017-12-28T04:30:15.232Z,4.03
2017-12-28T04:32:48.787Z,4.23
2017-12-28T04:35:21.299Z,4.37
2017-12-28T04:37:53.809Z,4.50
2017-12-28T04:40:26.309Z,4.20
2017-12-28T04:42:58.815Z,4.13
2017-12-28T04:45:31.370Z,4.27
2017-12-28T04:48:03.859Z,4.33
2017-12-28T04:50:36.352Z,5.00
2017-12-28T04:53:08.840Z,4.43
2017-12-28T04:55:41.698Z,4.00
2017-12-28T04:58:14.195Z,4.23
2017-12-28T05:00:46.705Z,4.17
2017-12-28T05:03:19.290Z,4.07
2017-12-28T05:05:51.801Z,3.57
2017-12-28T05:08:24.274Z,3.87
2017-12-28T05:10:56.798Z,3.20
2017-12-28T05:13:29.277Z,3.17
2017-12-28T05:16:01.784Z,3.10
2017-12-28T05:18:34.271Z,2.37
2017-12-28T05:21:06.776Z,2.07
2017-12-28T05:23:39.249Z,1.70
2017-12-28T05:26:11.743Z,1.90
2017-12-28T05:28:44.213Z,1.73
2017-12-28T05:31:16.732Z,1.53
2017-12-28T05:33:49.224Z,1.70
2017-12-28T05:36:21.740Z,1.90
2017-12-28T05:38:54.229Z,1.57
2017-12-28T05:41:26.838Z,1.80
2017-12-28T05:43:59.324Z,1.57
2017-12-28T05:46:31.897Z,1.60
2017-12-28T05:49:04.375Z,1.80
2017-12-28T05:51:36.879Z,2.00
2017-12-28T05:54:09.360Z,1.73
2017-12-28T05:56:42.364Z,1.50
2017-12-28T05:59:14.842Z,1.60
2017-12-28T06:01:47.371Z,2.07
2017-12-28T06:04:19.857Z,2.30
2017-12-28T06:06:52.363Z,2.00
2017-12-28T06:09:24.848Z,2.00
2017-12-28T06:11:57.355Z,2.73
2017-12-28T06:14:29.832Z,2.57
2017-12-28T06:17:02.319Z,2.90
2017-12-28T06:19:34.804Z,3.10
2017-12-28T06:22:07.331Z,2.73
2017-12-28T06:24:39.903Z,3.00
2017-12-28T06:27:13.115Z,3.30
2017-12-28T06:29:45.604Z,3.07
2017-12-28T06:32:18.114Z,3.20
2017-12-28T06:34:50.590Z,3.17
2017-12-28T06:37:23.102Z,2.60
2017-12-28T06:39:55.591Z,3.13
2017-12-28T06:42:28.088Z,2.50
2017-12-28T06:45:00.574Z,3.10
2017-12-28T06:47:33.143Z,3.10
2017-12-28T06:50:05.643Z,2.50
2017-12-28T06:52:38.136Z,2.97
2017-12-28T06:55:10.616Z,2.87
2017-12-28T06:57:43.122Z,2.57
2017-12-28T07:00:15.688Z,3.27
2017-12-28T07:02:48.200Z,2.80
2017-12-28T07:05:22.792Z,2.97
2017-12-28T07:07:55.281Z,3.03
2017-12-28T07:10:27.761Z,2.97
2017-12-28T07:13:00.284Z,3.33
2017-12-28T07:15:32.758Z,4.07
2017-12-28T07:18:05.259Z,4.27
2017-12-28T07:20:37.728Z,3.80
2017-12-28T07:23:10.231Z,3.23
2017-12-28T07:25:43.142Z,3.50
2017-12-28T07:28:15.634Z,3.70
2017-12-28T07:30:48.119Z,3.47
2017-12-28T07:33:20.618Z,3.97
2017-12-28T07:35:53.119Z,3.67
2017-12-28T07:38:25.619Z,4.37
2017-12-28T07:40:58.114Z,4.10
2017-12-28T07:43:30.624Z,4.23
2017-12-28T07:46:03.116Z,3.90
2017-12-28T07:48:35.621Z,3.57
2017-12-28T07:51:08.110Z,5.77
2017-12-28T07:53:40.632Z,4.03
2017-12-28T07:56:13.119Z,5.20
2017-12-28T07:58:45.614Z,3.90
2017-12-28T08:01:18.112Z,4.17
2017-12-28T08:03:50.603Z,4.47
2017-12-28T08:06:23.107Z,4.70
2017-12-28T08:08:55.902Z,4.37
2017-12-28T08:11:28.651Z,4.67
2017-12-28T08:14:01.167Z,4.67
2017-12-28T08:16:33.735Z,3.90
2017-12-28T08:19:06.218Z,3.80
2017-12-28T08:21:38.718Z,4.20
2017-12-28T08:24:12.450Z,4.53
2017-12-28T08:26:44.959Z,5.03
2017-12-28T08:29:17.436Z,4.67
2017-12-28T08:31:49.927Z,4.57
2017-12-28T08:34:22.467Z,5.27
2017-12-28T08:36:54.976Z,8.70
2017-12-28T08:39:27.462Z,5.40
2017-12-28T08:41:59.961Z,5.60
2017-12-28T08:44:32.447Z,5.87
2017-12-28T08:47:04.939Z,5.10
2017-12-28T08:49:37.414Z,5.10
2017-12-28T08:52:09.914Z,4.27
2017-12-28T08:54:42.970Z,4.80
2017-12-28T08:57:15.468Z,4.27
2017-12-28T08:59:47.955Z,5.60
2017-12-28T09:02:20.469Z,5.50
2017-12-28T09:04:52.942Z,4.27
2017-12-28T09:07:25.456Z,5.17
2017-12-28T09:09:57.932Z,5.83
2017-12-28T09:12:30.440Z,4.57
2017-12-28T09:15:02.927Z,4.53
2017-12-28T09:17:35.459Z,7.13
2017-12-28T09:20:08.239Z,3.80
2017-12-28T09:22:41.757Z,4.10
2017-12-28T09:25:14.429Z,5.10
2017-12-28T09:27:46.963Z,3.40
2017-12-28T09:30:19.664Z,3.10
2017-12-28T09:32:52.198Z,5.13
2017-12-28T09:35:24.683Z,3.13
2017-12-28T09:37:57.220Z,3.00
2017-12-28T09:40:29.705Z,3.67
2017-12-28T09:43:02.256Z,3.23
2017-12-28T09:45:35.163Z,3.07
2017-12-28T09:48:07.666Z,6.57
2017-12-28T09:50:40.146Z,3.23
2017-12-28T09:53:13.600Z,2.77
2017-12-28T09:55:46.269Z,2.60
2017-12-28T09:58:18.786Z,3.03
2017-12-28T10:00:51.517Z,3.00
2017-12-28T10:03:24.374Z,3.60
2017-12-28T10:05:56.862Z,3.30
2017-12-28T10:08:29.403Z,3.50
2017-12-28T10:11:02.229Z,3.23
2017-12-28T10:13:34.804Z,3.23
2017-12-28T10:16:07.635Z,2.83
2017-12-28T10:18:40.194Z,2.97
2017-12-28T10:21:13.407Z,2.60
2017-12-28T10:23:45.908Z,3.20
2017-12-28T10:26:18.413Z,3.53
2017-12-28T10:28:50.924Z,3.20
2017-12-28T10:31:23.720Z,3.63
2017-12-28T10:33:56.275Z,3.00
2017-12-28T10:36:29.221Z,2.70
2017-12-28T10:39:02.232Z,2.87
2017-12-28T10:41:35.981Z,2.90
2017-12-28T10:44:08.491Z,2.93
2017-12-28T10:46:41.531Z,2.57
2017-12-28T10:49:14.265Z,2.83
2017-12-28T10:51:46.744Z,2.60
2017-12-28T10:54:19.251Z,3.30
2017-12-28T10:56:51.723Z,2.73
2017-12-28T10:59:24.235Z,3.23
2017-12-28T11:01:56.985Z,3.80
2017-12-28T11:04:29.496Z,3.13
2017-12-28T11:07:01.973Z,3.03
2017-12-28T11:09:34.528Z,3.40
2017-12-28T11:12:07.070Z,2.93
2017-12-28T11:14:39.579Z,3.70
2017-12-28T11:17:12.285Z,3.30
2017-12-28T11:19:44.790Z,2.67
2017-12-28T11:22:17.281Z,2.97
2017-12-28T11:24:49.791Z,3.50
2017-12-28T11:27:22.319Z,3.80
2017-12-28T11:29:54.807Z,3.73
2017-12-28T11:32:27.309Z,3.77
2017-12-28T11:34:59.789Z,2.93
2017-12-28T11:37:32.295Z,2.90
2017-12-28T11:40:04.825Z,3.53
2017-12-28T11:42:37.333Z,2.90
2017-12-28T11:45:09.827Z,3.37
2017-12-28T11:47:43.027Z,3.13
2017-12-28T11:50:15.527Z,2.90
2017-12-28T11:52:48.024Z,2.63
2017-12-28T11:55:20.511Z,3.87
2017-12-28T11:57:55.929Z,3.10
2017-12-28T12:03:32.934Z,4.00
2017-12-28T12:06:07.788Z,3.30
2017-12-28T12:08:45.874Z,3.43
2017-12-28T12:11:18.351Z,3.33
2017-12-28T12:13:50.852Z,3.27
2017-12-28T12:16:23.331Z,2.80
2017-12-28T12:18:55.836Z,3.33
2017-12-28T12:21:28.319Z,3.40
2017-12-28T12:24:00.830Z,3.10
2017-12-28T12:26:33.302Z,3.40
2017-12-28T12:29:05.811Z,3.00
2017-12-28T12:31:38.285Z,3.20
2017-12-28T12:34:10.786Z,3.30
2017-12-28T12:36:43.273Z,2.73
2017-12-28T12:39:15.762Z,2.70
2017-12-28T12:41:48.253Z,2.77
2017-12-28T12:44:20.805Z,2.70
2017-12-28T12:46:53.279Z,3.37
2017-12-28T12:49:25.795Z,3.40
2017-12-28T12:51:58.804Z,2.80
2017-12-28T12:54:31.648Z,2.83
2017-12-28T12:57:05.030Z,3.03
2017-12-28T12:59:38.750Z,3.17
2017-12-28T13:02:11.814Z,3.27
2017-12-28T13:04:44.307Z,2.30
2017-12-28T13:07:16.783Z,3.33
2017-12-28T13:09:49.273Z,2.93
2017-12-28T13:12:21.761Z,3.57
2017-12-28T13:14:54.326Z,3.10
2017-12-28T13:17:26.872Z,3.30
2017-12-28T13:19:59.367Z,3.07
2017-12-28T13:22:31.844Z,2.73
2017-12-28T13:25:04.341Z,3.60
2017-12-28T13:27:36.815Z,3.10
2017-12-28T13:30:09.354Z,3.50
2017-12-28T13:32:41.833Z,2.87
2017-12-28T13:35:14.343Z,3.77
2017-12-28T13:37:46.831Z,4.27
2017-12-28T13:40:19.340Z,3.50
2017-12-28T13:42:51.822Z,2.77
2017-12-28T13:45:24.326Z,3.83
2017-12-28T13:47:56.808Z,3.93
2017-12-28T13:50:29.308Z,3.53
2017-12-28T13:53:01.789Z,3.30
2017-12-28T13:55:34.274Z,3.13
2017-12-28T13:58:06.752Z,2.87
2017-12-28T14:00:39.252Z,2.90
2017-12-28T14:03:12.070Z,3.07
2017-12-28T14:05:44.586Z,3.13
2017-12-28T14:08:17.144Z,2.73
2017-12-28T14:10:49.617Z,3.17
2017-12-28T14:13:22.112Z,3.50
2017-12-28T14:15:54.588Z,3.57
2017-12-28T14:18:27.087Z,3.03
2017-12-28T14:20:59.558Z,2.67
2017-12-28T14:23:32.065Z,3.33
2017-12-28T14:26:04.598Z,3.43
2017-12-28T14:28:37.095Z,3.73
2017-12-28T14:31:09.573Z,3.50
2017-12-28T14:33:42.088Z,3.00
2017-12-28T14:36:14.571Z,3.53
2017-12-28T14:38:47.072Z,3.30
2017-12-28T14:41:19.563Z,3.00
2017-12-28T14:43:52.072Z,3.30
2017-12-28T14:46:24.555Z,3.83
2017-12-28T14:48:59.095Z,3.17
2017-12-28T14:51:31.603Z,3.77
2017-12-28T14:54:04.126Z,4.07
2017-12-28T14:56:36.603Z,3.50
2017-12-28T14:59:09.206Z,2.87
2017-12-28T15:01:42.143Z,3.23
2017-12-28T15:04:14.665Z,3.33
2017-12-28T15:06:47.159Z,3.87
2017-12-28T15:09:19.657Z,5.73
2017-12-28T15:11:52.146Z,5.00
2017-12-28T15:14:25.057Z,4.70
2017-12-28T15:16:57.526Z,5.20
2017-12-28T15:19:30.036Z,3.47
2017-12-28T15:22:02.564Z,3.60
2017-12-28T15:24:35.055Z,3.80
2017-12-28T15:27:07.548Z,4.23
2017-12-28T15:29:40.074Z,6.13
2017-12-28T15:32:13.475Z,4.40
2017-12-28T15:34:46.055Z,4.23
2017-12-28T15:37:18.550Z,4.07
2017-12-28T15:39:51.068Z,3.60
2017-12-28T15:42:23.561Z,4.03
2017-12-28T15:44:56.062Z,3.93
2017-12-28T15:47:28.541Z,3.80
2017-12-28T15:50:01.055Z,3.60
2017-12-28T15:52:33.543Z,3.10
2017-12-28T15:55:06.061Z,3.10
2017-12-28T15:57:38.550Z,4.00
2017-12-28T16:00:11.717Z,3.60
2017-12-28T16:02:44.197Z,3.10
2017-12-28T16:05:16.696Z,3.23
2017-12-28T16:07:49.171Z,3.47
2017-12-28T16:10:21.759Z,3.43
2017-12-28T16:12:54.230Z,4.40
2017-12-28T16:15:26.726Z,3.27
2017-12-28T16:17:59.217Z,2.27
2017-12-28T16:20:31.732Z,2.73
2017-12-28T16:23:04.214Z,2.83
2017-12-28T16:25:36.728Z,2.93
2017-12-28T16:28:09.214Z,2.73
2017-12-28T16:30:42.048Z,2.90
2017-12-28T16:33:14.536Z,4.73
2017-12-28T16:35:47.026Z,2.77
2017-12-28T16:38:19.500Z,3.00
2017-12-28T16:40:52.003Z,2.87
2017-12-28T16:43:24.499Z,2.90
2017-12-28T16:45:57.000Z,3.27
2017-12-28T16:48:29.548Z,3.07
2017-12-28T16:51:02.107Z,2.93
2017-12-28T16:53:34.655Z,3.00
2017-12-28T16:56:07.239Z,3.23
2017-12-28T16:58:39.787Z,3.20
2017-12-28T17:01:12.910Z,3.87
2017-12-28T17:03:45.395Z,3.07
2017-12-28T17:06:17.906Z,3.53
2017-12-28T17:08:50.383Z,3.93
2017-12-28T17:11:22.969Z,3.50
2017-12-28T17:13:55.504Z,4.07
2017-12-28T17:16:28.018Z,4.90
2017-12-28T17:19:00.545Z,5.50
2017-12-28T17:21:33.038Z,5.70
2017-12-28T17:24:05.538Z,5.17
2017-12-28T17:26:38.046Z,5.37
2017-12-28T17:29:10.538Z,4.33
2017-12-28T17:31:43.836Z,3.87
2017-12-28T17:34:16.464Z,4.70
2017-12-28T17:36:49.019Z,4.07
2017-12-28T17:39:21.572Z,4.37
2017-12-28T17:41:54.087Z,4.83
2017-12-28T17:44:26.587Z,4.87
2017-12-28T17:46:59.063Z,4.37
2017-12-28T17:49:31.570Z,4.83
2017-12-28T17:52:04.051Z,5.13
2017-12-28T17:54:37.011Z,5.27
2017-12-28T17:57:09.581Z,4.70
2017-12-28T17:59:42.087Z,5.07
2017-12-28T18:02:19.163Z,4.77
2017-12-28T18:04:56.939Z,5.03
2017-12-28T18:07:29.495Z,5.30
2017-12-28T18:10:02.128Z,5.30
2017-12-28T18:12:34.611Z,5.57
2017-12-28T18:15:07.329Z,6.30
2017-12-28T18:17:39.959Z,6.00
2017-12-28T18:20:13.182Z,6.33
2017-12-28T18:22:45.658Z,6.60
2017-12-28T18:25:18.168Z,8.70
2017-12-28T18:27:50.759Z,7.77
2017-12-28T18:30:24.169Z,7.73
2017-12-28T18:32:56.647Z,8.47
2017-12-28T18:35:29.211Z,8.63
2017-12-28T18:38:01.694Z,10.03
2017-12-28T18:40:34.207Z,9.00
2017-12-28T18:43:06.700Z,9.57
2017-12-28T18:45:39.571Z,9.27
2017-12-28T18:48:12.058Z,9.73
2017-12-28T18:50:44.571Z,8.80
2017-12-28T18:53:17.100Z,11.30
2017-12-28T18:55:50.726Z,9.70
2017-12-28T18:58:23.283Z,11.00
2017-12-28T19:00:55.804Z,11.07
2017-12-28T19:03:28.300Z,11.43
2017-12-28T19:06:00.808Z,13.97
2017-12-28T19:08:33.296Z,12.73
2017-12-28T19:11:05.823Z,11.37
2017-12-28T19:13:38.626Z,12.60
2017-12-28T19:16:11.756Z,12.13
2017-12-28T19:18:44.403Z,11.90
2017-12-28T19:21:16.926Z,12.00
2017-12-28T19:23:49.425Z,14.43
2017-12-28T19:26:21.945Z,12.23
2017-12-28T19:28:54.471Z,11.33
2017-12-28T19:31:26.989Z,12.33
2017-12-28T19:33:59.492Z,12.70
2017-12-28T19:36:32.025Z,10.53
2017-12-28T19:39:04.520Z,10.90
2017-12-28T19:41:37.041Z,11.20
2017-12-28T19:44:09.535Z,11.47
2017-12-28T19:46:42.044Z,12.00
2017-12-28T19:49:14.545Z,11.47
2017-12-28T19:51:47.077Z,12.73
2017-12-28T19:54:19.562Z,9.83
2017-12-28T19:56:52.079Z,11.07
2017-12-28T19:59:24.590Z,11.20
2017-12-28T20:01:57.095Z,9.73
2017-12-28T20:04:29.585Z,11.00
2017-12-28T20:07:02.086Z,10.47
2017-12-28T20:09:34.594Z,10.90
2017-12-28T20:12:07.110Z,10.37
2017-12-28T20:14:39.622Z,9.60
2017-12-28T20:17:12.148Z,8.77
2017-12-28T20:19:44.635Z,9.27
2017-12-28T20:22:17.136Z,9.20
2017-12-28T20:24:49.626Z,8.60
2017-12-28T20:27:22.162Z,8.63
2017-12-28T20:29:54.655Z,8.37
2017-12-28T20:32:27.170Z,8.37
2017-12-28T20:34:59.713Z,8.00
2017-12-28T20:37:32.243Z,8.20
2017-12-28T20:40:04.730Z,8.07
2017-12-28T20:42:37.232Z,8.23
2017-12-28T20:45:10.991Z,8.27
2017-12-28T20:47:43.506Z,8.40
2017-12-28T20:50:16.021Z,7.10
2017-12-28T20:52:48.526Z,7.23
2017-12-28T20:55:21.013Z,7.17
2017-12-28T20:57:53.517Z,8.03
2017-12-28T21:00:26.007Z,7.53
2017-12-28T21:02:58.512Z,7.50
2017-12-28T21:05:30.989Z,7.17
2017-12-28T21:08:03.516Z,6.60
2017-12-28T21:10:36.028Z,6.73
2017-12-28T21:13:08.526Z,7.30
2017-12-28T21:15:41.012Z,6.43
2017-12-28T21:18:13.520Z,6.90
2017-12-28T21:20:46.002Z,6.07
2017-12-28T21:23:18.506Z,6.20
2017-12-28T21:25:50.999Z,6.90
2017-12-28T21:28:23.502Z,6.37
2017-12-28T21:30:56.012Z,6.80
2017-12-28T21:33:28.527Z,7.03
2017-12-28T21:36:01.009Z,6.97
2017-12-28T21:38:33.513Z,6.47
2017-12-28T21:41:05.993Z,6.57
2017-12-28T21:43:38.507Z,7.13
2017-12-28T21:46:11.022Z,6.23
2017-12-28T21:48:43.538Z,6.57
2017-12-28T21:51:16.007Z,6.60
2017-12-28T21:53:48.531Z,6.37
2017-12-28T21:56:21.043Z,5.93
2017-12-28T21:58:53.576Z,6.50
2017-12-28T22:01:26.056Z,7.00
2017-12-28T22:03:58.578Z,6.47
2017-12-28T22:06:31.061Z,7.07
2017-12-28T22:09:03.570Z,6.00
2017-12-28T22:11:36.052Z,7.03
2017-12-28T22:14:08.548Z,5.90
2017-12-28T22:16:42.164Z,6.43
2017-12-28T22:19:14.690Z,6.57
2017-12-28T22:21:47.202Z,6.27
2017-12-28T22:24:19.715Z,6.63
2017-12-28T22:26:52.201Z,7.00
2017-12-28T22:29:24.722Z,5.23
2017-12-28T22:31:57.238Z,6.43
2017-12-28T22:34:29.746Z,6.23
2017-12-28T22:37:02.232Z,7.47
2017-12-28T22:39:34.735Z,6.03
2017-12-28T22:42:07.214Z,6.30
2017-12-28T22:44:39.727Z,7.00
2017-12-28T22:47:12.213Z,7.93
2017-12-28T22:49:44.774Z,7.67
2017-12-28T22:52:17.276Z,6.00
2017-12-28T22:54:49.779Z,7.20
2017-12-28T22:57:22.292Z,8.17
2017-12-28T22:59:56.006Z,8.10
2017-12-28T23:02:28.488Z,7.60
2017-12-28T23:05:00.993Z,7.27
2017-12-28T23:07:33.498Z,7.30
2017-12-28T23:10:06.016Z,7.17
2017-12-28T23:12:38.506Z,7.60
2017-12-28T23:15:11.088Z,7.07
2017-12-28T23:17:43.586Z,6.77
2017-12-28T23:20:16.111Z,7.53
2017-12-28T23:22:48.632Z,8.10
2017-12-28T23:25:21.142Z,6.73
2017-12-28T23:27:54.863Z,6.77
2017-12-28T23:30:27.372Z,7.63
2017-12-28T23:32:59.887Z,7.47
2017-12-28T23:35:32.387Z,7.17
2017-12-28T23:38:04.903Z,7.57
2017-12-28T23:40:37.410Z,7.67
2017-12-28T23:43:09.915Z,8.50
2017-12-28T23:45:43.427Z,9.23
2017-12-28T23:48:15.954Z,7.70
2017-12-28T23:50:48.437Z,8.27
2017-12-28T23:53:20.943Z,6.87
2017-12-28T23:55:53.442Z,8.23
2017-12-28T23:58:25.947Z,7.80
